Time;durP1;ratioP1;P1;durP2;ratioP2;P2;SDS_P1;SDS_P2;PMS_P1;PMS_P2;Temp;Humidity;BMP_temperature;BMP_pressure;BME280_temperature;BME280_humidity;BME280_pressure;Samples;Min_cycle;Max_cycle;Signal;HPM_P1;HPM_P2
2023/07/22 00:01:10;;;;;;;11.20;5.90;;;;;;;;;;5075533;28;20051;-78
2023/07/22 00:03:37;;;;;;;10.95;6.15;;;;;;;;;;5094417;28;20082;-78
2023/07/22 00:06:05;;;;;;;10.80;6.45;;;;;;;;;;5094594;28;20058;-78
2023/07/22 00:08:31;;;;;;;13.30;6.53;;;;;;;;;;5092713;28;20139;-76
2023/07/22 00:10:57;;;;;;;14.80;6.90;;;;;;;;;;5093546;28;20040;-77
2023/07/22 00:13:26;;;;;;;10.15;6.22;;;;;;;;;;5095040;28;20046;-76
2023/07/22 00:15:53;;;;;;;10.30;6.45;;;;;;;;;;5096489;28;20437;-76
2023/07/22 00:18:19;;;;;;;13.15;6.47;;;;;;;;;;5088094;28;20166;-77
2023/07/22 00:20:45;;;;;;;10.43;6.35;;;;;;;;;;5094227;28;20047;-76
2023/07/22 00:23:12;;;;;;;12.30;6.90;;;;;;;;;;5094317;28;20051;-77
2023/07/22 00:25:38;;;;;;;13.30;7.20;;;;;;;;;;5093873;28;20048;-78
2023/07/22 00:28:04;;;;;;;11.13;7.05;;;;;;;;;;5094171;28;20044;-77
2023/07/22 00:30:30;;;;;;;12.82;6.28;;;;;;;;;;5102500;28;20406;-77
2023/07/22 00:32:56;;;;;;;10.20;6.13;;;;;;;;;;5114119;28;20084;-77
2023/07/22 00:35:22;;;;;;;12.18;6.38;;;;;;;;;;5094995;28;20054;-76
2023/07/22 00:37:48;;;;;;;10.80;6.10;;;;;;;;;;5095362;28;20054;-76
2023/07/22 00:40:15;;;;;;;9.82;6.25;;;;;;;;;;5114307;28;20100;-77
2023/07/22 00:42:41;;;;;;;12.80;6.30;;;;;;;;;;5114185;28;20051;-78
2023/07/22 00:45:08;;;;;;;13.50;6.60;;;;;;;;;;5095764;28;20055;-77
2023/07/22 00:47:35;;;;;;;12.60;6.35;;;;;;;;;;5095327;28;20082;-77
2023/07/22 00:50:06;;;;;;;14.57;6.88;;;;;;;;;;5075537;28;20044;-77
2023/07/22 00:52:32;;;;;;;12.40;7.00;;;;;;;;;;5093494;28;20123;-77
2023/07/22 00:54:58;;;;;;;13.32;6.55;;;;;;;;;;5092837;28;20126;-78
2023/07/22 00:57:25;;;;;;;11.65;6.38;;;;;;;;;;5093336;28;20044;-77
2023/07/22 00:59:51;;;;;;;11.73;6.32;;;;;;;;;;5091897;28;20090;-77
2023/07/22 01:02:18;;;;;;;11.20;6.32;;;;;;;;;;5092538;28;20148;-77
2023/07/22 01:04:45;;;;;;;10.00;6.18;;;;;;;;;;5093123;28;20043;-77
2023/07/22 01:07:11;;;;;;;12.15;6.15;;;;;;;;;;5092244;28;20035;-78
2023/07/22 01:09:38;;;;;;;12.57;6.30;;;;;;;;;;5091584;28;20047;-77
2023/07/22 01:12:06;;;;;;;12.68;6.88;;;;;;;;;;5092704;28;20384;-78
2023/07/22 01:14:35;;;;;;;10.98;6.20;;;;;;;;;;5074837;28;20052;-78
2023/07/22 01:17:06;;;;;;;12.68;7.18;;;;;;;;;;5074958;28;20036;-78
2023/07/22 01:19:33;;;;;;;14.85;8.18;;;;;;;;;;5092948;28;20457;-78
2023/07/22 01:22:03;;;;;;;15.75;8.07;;;;;;;;;;5074348;28;20036;-78
2023/07/22 01:24:29;;;;;;;11.73;7.25;;;;;;;;;;5074593;28;20101;-78
2023/07/22 01:26:56;;;;;;;14.88;7.85;;;;;;;;;;5092928;28;20051;-78
2023/07/22 01:29:22;;;;;;;14.48;7.78;;;;;;;;;;5092743;28;20131;-78
2023/07/22 01:31:49;;;;;;;14.00;7.60;;;;;;;;;;5091859;28;20043;-78
2023/07/22 01:34:16;;;;;;;12.25;7.10;;;;;;;;;;5076961;28;20044;-77
2023/07/22 01:36:43;;;;;;;13.40;7.18;;;;;;;;;;5089864;28;20377;-77
2023/07/22 01:39:11;;;;;;;15.63;8.15;;;;;;;;;;5091561;28;20088;-77
2023/07/22 01:41:37;;;;;;;12.77;7.43;;;;;;;;;;5074374;28;20436;-78
2023/07/22 01:44:03;;;;;;;16.17;8.20;;;;;;;;;;5073517;28;20043;-78
2023/07/22 01:46:29;;;;;;;12.07;8.00;;;;;;;;;;5079449;28;20043;-77
2023/07/22 01:48:56;;;;;;;15.00;8.20;;;;;;;;;;5087121;28;20143;-77
2023/07/22 01:51:22;;;;;;;15.68;8.68;;;;;;;;;;5092958;28;20381;-77
2023/07/22 01:53:49;;;;;;;14.70;8.07;;;;;;;;;;5073892;28;20044;-77
2023/07/22 01:56:20;;;;;;;15.27;8.68;;;;;;;;;;5089598;28;20089;-77
2023/07/22 01:58:46;;;;;;;16.20;7.55;;;;;;;;;;5090067;28;20556;-77
2023/07/22 02:01:15;;;;;;;13.90;7.90;;;;;;;;;;5092297;28;20441;-77
2023/07/22 02:03:41;;;;;;;13.73;7.10;;;;;;;;;;5091913;28;20051;-78
2023/07/22 02:06:07;;;;;;;12.77;6.72;;;;;;;;;;5091923;28;20060;-77
2023/07/22 02:08:33;;;;;;;14.52;6.85;;;;;;;;;;5092541;28;20381;-77
2023/07/22 02:11:04;;;;;;;11.93;7.20;;;;;;;;;;5092448;28;20040;-77
2023/07/22 02:13:30;;;;;;;18.42;7.53;;;;;;;;;;5092228;28;20353;-77
2023/07/22 02:15:56;;;;;;;12.85;6.68;;;;;;;;;;5091759;28;20115;-77
2023/07/22 02:18:23;;;;;;;12.02;6.88;;;;;;;;;;5092443;28;20052;-77
2023/07/22 02:20:49;;;;;;;11.90;6.35;;;;;;;;;;5074023;28;20188;-77
2023/07/22 02:23:15;;;;;;;13.52;6.50;;;;;;;;;;5092314;28;20055;-77
2023/07/22 02:25:41;;;;;;;11.98;6.50;;;;;;;;;;5092204;28;20044;-78
2023/07/22 02:28:07;;;;;;;12.52;6.32;;;;;;;;;;5091919;28;20044;-77
2023/07/22 02:30:37;;;;;;;10.23;6.57;;;;;;;;;;5091981;28;20507;-78
2023/07/22 02:33:06;;;;;;;12.25;6.40;;;;;;;;;;5056555;28;20047;-78
2023/07/22 02:35:33;;;;;;;9.40;6.00;;;;;;;;;;5091208;28;20131;-78
2023/07/22 02:37:59;;;;;;;11.90;6.10;;;;;;;;;;5091785;28;20550;-78
2023/07/22 02:40:25;;;;;;;12.90;6.00;;;;;;;;;;5092172;28;20040;-78
2023/07/22 02:42:51;;;;;;;9.05;5.40;;;;;;;;;;5092152;28;20126;-77
2023/07/22 02:45:17;;;;;;;9.63;5.60;;;;;;;;;;5073631;28;20142;-77
2023/07/22 02:47:43;;;;;;;11.55;6.20;;;;;;;;;;5053098;28;20048;-77
2023/07/22 02:50:10;;;;;;;10.98;6.10;;;;;;;;;;5083675;28;20042;-77
2023/07/22 02:52:36;;;;;;;10.35;6.05;;;;;;;;;;5099255;28;20049;-77
2023/07/22 02:55:07;;;;;;;10.48;6.18;;;;;;;;;;5094380;28;20044;-77
2023/07/22 02:57:33;;;;;;;8.43;5.30;;;;;;;;;;5100122;28;20044;-77
2023/07/22 02:59:59;;;;;;;9.95;6.05;;;;;;;;;;5077550;28;20066;-77
2023/07/22 03:02:25;;;;;;;9.85;5.65;;;;;;;;;;5095622;28;20048;-77
2023/07/22 03:04:52;;;;;;;10.35;5.57;;;;;;;;;;5095483;28;20044;-77
2023/07/22 03:07:20;;;;;;;10.88;6.30;;;;;;;;;;5095349;28;20048;-77
2023/07/22 03:09:46;;;;;;;11.00;6.22;;;;;;;;;;5110911;28;20460;-77
2023/07/22 03:12:12;;;;;;;11.68;5.88;;;;;;;;;;5116084;28;20046;-78
2023/07/22 03:14:38;;;;;;;10.02;5.97;;;;;;;;;;5097747;28;20044;-76
2023/07/22 03:17:06;;;;;;;10.68;6.18;;;;;;;;;;5114802;28;20052;-77
2023/07/22 03:19:32;;;;;;;11.43;6.07;;;;;;;;;;5095608;28;20055;-75
2023/07/22 03:21:58;;;;;;;10.60;6.10;;;;;;;;;;5108997;28;20467;-75
2023/07/22 03:24:25;;;;;;;14.23;7.15;;;;;;;;;;5083688;28;20382;-76
2023/07/22 03:26:51;;;;;;;11.93;6.85;;;;;;;;;;5077727;28;20043;-77
2023/07/22 03:29:17;;;;;;;11.95;7.72;;;;;;;;;;5095205;28;20048;-76
2023/07/22 03:31:43;;;;;;;12.73;7.55;;;;;;;;;;5095142;28;20441;-77
2023/07/22 03:34:10;;;;;;;13.07;7.95;;;;;;;;;;5075975;28;20036;-77
2023/07/22 03:36:36;;;;;;;12.73;7.05;;;;;;;;;;5094621;28;20064;-78
2023/07/22 03:39:03;;;;;;;11.57;6.70;;;;;;;;;;5095316;28;20043;-76
2023/07/22 03:41:29;;;;;;;9.65;6.03;;;;;;;;;;5095063;28;20063;-77
2023/07/22 03:43:55;;;;;;;11.00;6.20;;;;;;;;;;5094648;28;20485;-77
2023/07/22 03:46:21;;;;;;;10.75;6.40;;;;;;;;;;5075516;28;20385;-77
2023/07/22 03:48:47;;;;;;;11.07;5.90;;;;;;;;;;5094632;28;20105;-77
2023/07/22 03:51:13;;;;;;;11.02;5.85;;;;;;;;;;5076330;28;20047;-77
2023/07/22 03:53:39;;;;;;;15.40;6.70;;;;;;;;;;5094459;28;20114;-77
2023/07/22 03:56:05;;;;;;;10.20;6.15;;;;;;;;;;5075975;28;20556;-78
2023/07/22 03:58:31;;;;;;;11.65;6.60;;;;;;;;;;5094580;28;20052;-78
2023/07/22 04:00:57;;;;;;;10.48;6.25;;;;;;;;;;5093873;28;20044;-76
2023/07/22 04:03:23;;;;;;;10.93;6.22;;;;;;;;;;5076128;28;20047;-76
2023/07/22 04:05:56;;;;;;;10.60;6.63;;;;;;;;;;5076119;28;20063;-77
2023/07/22 04:08:23;;;;;;;10.35;5.90;;;;;;;;;;5092159;28;20044;-76
2023/07/22 04:10:53;;;;;;;10.45;5.90;;;;;;;;;;5075799;28;20079;-77
2023/07/22 04:13:19;;;;;;;9.50;5.93;;;;;;;;;;5094761;28;20426;-76
2023/07/22 04:15:45;;;;;;;11.45;6.05;;;;;;;;;;5075461;28;20429;-77
2023/07/22 04:18:11;;;;;;;9.70;5.35;;;;;;;;;;5111174;28;20073;-77
2023/07/22 04:20:37;;;;;;;10.68;5.40;;;;;;;;;;5091376;28;20059;-77
2023/07/22 04:23:03;;;;;;;10.02;5.10;;;;;;;;;;5094219;28;20244;-77
2023/07/22 04:25:29;;;;;;;8.20;4.93;;;;;;;;;;5076007;28;20130;-78
2023/07/22 04:27:56;;;;;;;12.18;5.18;;;;;;;;;;5094430;28;20079;-78
2023/07/22 04:30:22;;;;;;;10.05;5.28;;;;;;;;;;5059543;28;20048;-78
2023/07/22 04:32:52;;;;;;;9.35;5.13;;;;;;;;;;5093717;28;20123;-77
2023/07/22 04:35:18;;;;;;;9.00;5.28;;;;;;;;;;5114255;28;20355;-78
2023/07/22 04:37:44;;;;;;;10.13;5.60;;;;;;;;;;5106359;28;20048;-78
2023/07/22 04:40:14;;;;;;;10.60;5.45;;;;;;;;;;5059443;28;20400;-77
2023/07/22 04:42:41;;;;;;;9.93;5.55;;;;;;;;;;5075663;28;20052;-77
2023/07/22 04:45:09;;;;;;;10.88;5.85;;;;;;;;;;5093705;28;20068;-76
2023/07/22 04:47:36;;;;;;;10.95;6.13;;;;;;;;;;5093191;28;20044;-77
2023/07/22 04:50:03;;;;;;;13.23;6.70;;;;;;;;;;5093460;28;20070;-78
2023/07/22 04:52:29;;;;;;;10.95;6.45;;;;;;;;;;5092803;28;20044;-77
2023/07/22 04:54:55;;;;;;;11.05;6.45;;;;;;;;;;5074831;28;20480;-77
2023/07/22 04:57:22;;;;;;;11.68;6.40;;;;;;;;;;5093231;28;20043;-77
2023/07/22 04:59:48;;;;;;;14.10;6.75;;;;;;;;;;5093145;28;20123;-77
2023/07/22 05:02:14;;;;;;;13.88;6.72;;;;;;;;;;5073503;28;20381;-78
2023/07/22 05:04:40;;;;;;;10.13;6.88;;;;;;;;;;5074085;28;20094;-78
2023/07/22 05:07:06;;;;;;;12.90;6.95;;;;;;;;;;5092779;28;20436;-78
2023/07/22 05:09:33;;;;;;;12.07;6.80;;;;;;;;;;5083630;28;20040;-78
2023/07/22 05:11:59;;;;;;;10.45;6.57;;;;;;;;;;5093071;28;20068;-77
2023/07/22 05:14:25;;;;;;;11.90;7.18;;;;;;;;;;5074555;28;20032;-78
2023/07/22 05:16:51;;;;;;;10.43;7.00;;;;;;;;;;5074862;28;20396;-77
2023/07/22 05:19:18;;;;;;;12.38;6.82;;;;;;;;;;5092774;28;20085;-78
2023/07/22 05:21:44;;;;;;;11.82;7.00;;;;;;;;;;5092938;28;20051;-77
2023/07/22 05:24:11;;;;;;;13.65;7.65;;;;;;;;;;5092645;28;20048;-77
2023/07/22 05:26:37;;;;;;;12.77;7.43;;;;;;;;;;5082888;28;20526;-77
2023/07/22 05:29:03;;;;;;;12.18;7.78;;;;;;;;;;5073537;28;20068;-77
2023/07/22 05:31:29;;;;;;;13.05;7.45;;;;;;;;;;5058132;28;20078;-77
2023/07/22 05:33:55;;;;;;;10.52;7.10;;;;;;;;;;5092548;28;20046;-78
2023/07/22 05:36:22;;;;;;;11.82;7.65;;;;;;;;;;5074422;28;20047;-77
2023/07/22 05:38:48;;;;;;;11.85;7.30;;;;;;;;;;5092424;28;20430;-77
2023/07/22 05:41:14;;;;;;;11.30;7.20;;;;;;;;;;5074469;28;20480;-77
2023/07/22 05:43:40;;;;;;;13.13;7.32;;;;;;;;;;5092964;28;20055;-77
2023/07/22 05:46:06;;;;;;;12.30;7.80;;;;;;;;;;5073901;28;20051;-77
2023/07/22 05:48:32;;;;;;;14.20;7.50;;;;;;;;;;5092492;28;20051;-77
2023/07/22 05:50:58;;;;;;;12.60;7.78;;;;;;;;;;5074108;28;20125;-77
2023/07/22 05:53:24;;;;;;;12.65;7.85;;;;;;;;;;5074288;28;20128;-77
2023/07/22 05:55:52;;;;;;;12.68;8.02;;;;;;;;;;5073617;28;20043;-77
2023/07/22 05:58:19;;;;;;;10.63;7.18;;;;;;;;;;5074227;28;20154;-77
2023/07/22 06:00:46;;;;;;;13.05;7.78;;;;;;;;;;5082604;28;20071;-77
2023/07/22 06:03:12;;;;;;;14.20;8.23;;;;;;;;;;5092140;28;20048;-76
2023/07/22 06:05:38;;;;;;;14.23;8.43;;;;;;;;;;5073991;28;20055;-76
2023/07/22 06:08:05;;;;;;;14.40;8.27;;;;;;;;;;5092058;28;20083;-77
2023/07/22 06:10:32;;;;;;;12.85;7.93;;;;;;;;;;5089389;28;20056;-74
2023/07/22 06:12:58;;;;;;;12.70;8.02;;;;;;;;;;5091920;28;20028;-73
2023/07/22 06:15:24;;;;;;;13.75;7.88;;;;;;;;;;5073367;28;20074;-73
2023/07/22 06:17:50;;;;;;;12.40;7.63;;;;;;;;;;5091375;28;20503;-74
2023/07/22 06:20:16;;;;;;;12.35;7.93;;;;;;;;;;5074270;28;20085;-75
2023/07/22 06:22:42;;;;;;;15.23;7.88;;;;;;;;;;5092013;28;20453;-74
2023/07/22 06:25:09;;;;;;;15.95;8.65;;;;;;;;;;5092642;28;20456;-75
2023/07/22 06:27:38;;;;;;;14.68;8.45;;;;;;;;;;5092629;28;20040;-74
2023/07/22 06:30:04;;;;;;;14.43;8.43;;;;;;;;;;5092128;28;20036;-75
2023/07/22 06:32:30;;;;;;;16.58;9.07;;;;;;;;;;5075139;28;20040;-75
2023/07/22 06:34:57;;;;;;;15.32;9.00;;;;;;;;;;5095459;28;20467;-75
2023/07/22 06:37:24;;;;;;;12.63;8.50;;;;;;;;;;5096009;28;20433;-75
2023/07/22 06:39:50;;;;;;;13.45;9.00;;;;;;;;;;5095678;28;20507;-75
2023/07/22 06:42:16;;;;;;;14.38;8.95;;;;;;;;;;5081310;28;20043;-75
2023/07/22 06:44:43;;;;;;;16.63;9.38;;;;;;;;;;5102889;28;20052;-74
2023/07/22 06:47:09;;;;;;;14.70;9.02;;;;;;;;;;5096308;28;20044;-75
2023/07/22 06:49:35;;;;;;;13.75;9.05;;;;;;;;;;5075666;28;20079;-75
2023/07/22 06:52:02;;;;;;;15.80;9.35;;;;;;;;;;5074333;28;20128;-76
2023/07/22 06:54:28;;;;;;;14.10;9.65;;;;;;;;;;5092538;28;20043;-75
2023/07/22 06:56:54;;;;;;;16.10;9.30;;;;;;;;;;5098688;28;20036;-76
2023/07/22 06:59:20;;;;;;;14.75;9.25;;;;;;;;;;5098593;28;20050;-75
2023/07/22 07:01:46;;;;;;;14.52;8.90;;;;;;;;;;5103722;28;20032;-75
2023/07/22 07:04:12;;;;;;;15.43;9.65;;;;;;;;;;5077308;28;20044;-76
2023/07/22 07:06:38;;;;;;;14.00;8.93;;;;;;;;;;5094556;28;20048;-75
2023/07/22 07:09:05;;;;;;;13.93;9.10;;;;;;;;;;5077036;28;20043;-75
2023/07/22 07:11:32;;;;;;;15.10;9.30;;;;;;;;;;5076826;28;20048;-75
2023/07/22 07:13:58;;;;;;;13.80;8.90;;;;;;;;;;5095259;28;20400;-75
2023/07/22 07:16:26;;;;;;;13.63;9.43;;;;;;;;;;5094989;28;20131;-75
2023/07/22 07:18:52;;;;;;;14.15;9.82;;;;;;;;;;5076882;28;20047;-76
2023/07/22 07:21:19;;;;;;;14.77;9.35;;;;;;;;;;5095068;28;20036;-76
2023/07/22 07:23:45;;;;;;;15.40;9.10;;;;;;;;;;5094979;28;20048;-75
2023/07/22 07:26:12;;;;;;;12.88;8.77;;;;;;;;;;5094789;28;20075;-74
2023/07/22 07:28:38;;;;;;;13.57;9.07;;;;;;;;;;5093756;28;20044;-75
2023/07/22 07:31:04;;;;;;;12.98;8.40;;;;;;;;;;5095312;28;20131;-76
2023/07/22 07:33:30;;;;;;;13.68;8.75;;;;;;;;;;5095155;28;20177;-75
2023/07/22 07:35:56;;;;;;;13.45;8.60;;;;;;;;;;5094843;28;20113;-75
2023/07/22 07:38:22;;;;;;;13.23;9.13;;;;;;;;;;5059522;28;20041;-76
2023/07/22 07:40:52;;;;;;;14.50;9.45;;;;;;;;;;5056547;28;20044;-75
2023/07/22 07:43:18;;;;;;;14.00;10.18;;;;;;;;;;5090165;28;20127;-74
2023/07/22 07:45:45;;;;;;;14.75;9.48;;;;;;;;;;5074271;28;20136;-75
2023/07/22 07:48:11;;;;;;;16.35;9.73;;;;;;;;;;5062071;28;20084;-75
2023/07/22 07:50:37;;;;;;;15.00;9.13;;;;;;;;;;5074429;28;20127;-76
2023/07/22 07:53:03;;;;;;;14.48;9.68;;;;;;;;;;5056968;28;20377;-75
2023/07/22 07:55:29;;;;;;;14.90;9.60;;;;;;;;;;5059729;28;20101;-75
2023/07/22 07:57:55;;;;;;;16.33;9.23;;;;;;;;;;5092488;28;20040;-75
2023/07/22 08:00:21;;;;;;;14.38;9.07;;;;;;;;;;5093982;28;20048;-75
2023/07/22 08:02:48;;;;;;;14.73;8.85;;;;;;;;;;5091244;28;20483;-75
2023/07/22 08:05:16;;;;;;;13.65;9.25;;;;;;;;;;5113337;28;20159;-75
2023/07/22 08:07:42;;;;;;;14.20;8.65;;;;;;;;;;5094330;28;20048;-75
2023/07/22 08:10:09;;;;;;;14.65;8.30;;;;;;;;;;5059347;28;20044;-76
2023/07/22 08:12:37;;;;;;;11.30;7.60;;;;;;;;;;5075799;28;20052;-74
2023/07/22 08:15:04;;;;;;;11.00;7.80;;;;;;;;;;5093980;28;20032;-75
2023/07/22 08:17:30;;;;;;;12.77;8.02;;;;;;;;;;5075951;28;20079;-76
2023/07/22 08:19:57;;;;;;;11.90;7.88;;;;;;;;;;5092974;28;20040;-76
2023/07/22 08:22:23;;;;;;;12.30;8.00;;;;;;;;;;5092574;28;20142;-75
2023/07/22 08:24:49;;;;;;;10.63;7.30;;;;;;;;;;5100000;28;20044;-75
2023/07/22 08:27:15;;;;;;;13.02;7.82;;;;;;;;;;5114617;28;20395;-75
2023/07/22 08:29:41;;;;;;;11.63;7.05;;;;;;;;;;5101601;28;20048;-75
2023/07/22 08:32:07;;;;;;;10.77;6.95;;;;;;;;;;5093895;28;20039;-74
2023/07/22 08:34:33;;;;;;;13.32;7.55;;;;;;;;;;5093726;28;20040;-75
2023/07/22 08:36:59;;;;;;;12.10;7.15;;;;;;;;;;5091784;28;20314;-76
2023/07/22 08:39:25;;;;;;;14.55;7.20;;;;;;;;;;5091575;28;20036;-74
2023/07/22 08:41:52;;;;;;;10.18;7.13;;;;;;;;;;5092439;28;20036;-76
2023/07/22 08:44:22;;;;;;;10.43;6.50;;;;;;;;;;5093120;28;20182;-75
2023/07/22 08:46:50;;;;;;;9.68;6.63;;;;;;;;;;5093265;28;20055;-75
2023/07/22 08:49:16;;;;;;;8.90;6.18;;;;;;;;;;5057363;28;20059;-74
2023/07/22 08:51:43;;;;;;;8.13;5.53;;;;;;;;;;5093385;28;20040;-74
2023/07/22 08:54:10;;;;;;;11.10;5.88;;;;;;;;;;5092761;28;20071;-73
2023/07/22 08:56:36;;;;;;;8.23;5.60;;;;;;;;;;5091288;28;20044;-74
2023/07/22 08:59:02;;;;;;;8.55;5.70;;;;;;;;;;5091745;28;20043;-74
2023/07/22 09:01:28;;;;;;;8.73;5.65;;;;;;;;;;5075565;28;20436;-73
2023/07/22 09:03:57;;;;;;;8.82;5.13;;;;;;;;;;5092082;28;20404;-75
2023/07/22 09:06:24;;;;;;;8.57;5.53;;;;;;;;;;5095101;28;20051;-73
2023/07/22 09:08:50;;;;;;;9.00;5.40;;;;;;;;;;5113507;28;20046;-75
2023/07/22 09:11:16;;;;;;;8.73;5.55;;;;;;;;;;5082241;28;20048;-75
2023/07/22 09:13:45;;;;;;;8.07;5.20;;;;;;;;;;5099872;28;20055;-75
2023/07/22 09:16:12;;;;;;;8.27;5.18;;;;;;;;;;5095077;28;20400;-73
2023/07/22 09:18:38;;;;;;;8.93;4.90;;;;;;;;;;5099577;28;20412;-74
2023/07/22 09:21:04;;;;;;;9.27;5.10;;;;;;;;;;5093102;28;20126;-75
2023/07/22 09:23:37;;;;;;;7.28;4.72;;;;;;;;;;5092345;28;20480;-76
2023/07/22 09:26:13;;;;;;;6.93;5.00;;;;;;;;;;5092748;28;20040;-75
2023/07/22 09:28:52;;;;;;;7.15;5.10;;;;;;;;;;5092815;28;20040;-75
2023/07/22 09:31:18;;;;;;;8.77;5.05;;;;;;;;;;5092512;28;20044;-75
2023/07/22 09:33:44;;;;;;;10.13;5.10;;;;;;;;;;5113163;28;20050;-75
2023/07/22 09:36:11;;;;;;;13.00;6.28;;;;;;;;;;5112890;28;20495;-77
2023/07/22 09:38:37;;;;;;;11.23;6.72;;;;;;;;;;5095123;28;20395;-75
2023/07/22 09:41:03;;;;;;;11.65;7.28;;;;;;;;;;5094851;28;20042;-75
2023/07/22 09:43:30;;;;;;;11.60;6.82;;;;;;;;;;5113073;28;20502;-75
2023/07/22 09:45:56;;;;;;;11.35;7.60;;;;;;;;;;5112811;28;20422;-75
2023/07/22 09:48:23;;;;;;;11.43;7.55;;;;;;;;;;5102001;28;20122;-75
2023/07/22 09:50:58;;;;;;;12.88;8.43;;;;;;;;;;5092531;28;20055;-75
2023/07/22 09:53:24;;;;;;;13.95;8.80;;;;;;;;;;5073871;28;20059;-75
2023/07/22 09:55:53;;;;;;;14.70;9.15;;;;;;;;;;5091017;28;20215;-75
2023/07/22 09:58:19;;;;;;;13.90;9.02;;;;;;;;;;5091770;28;20043;-75
2023/07/22 10:00:48;;;;;;;14.77;9.10;;;;;;;;;;5095457;28;20040;-73
2023/07/22 10:03:16;;;;;;;14.90;8.98;;;;;;;;;;5080874;28;20446;-73
2023/07/22 10:05:42;;;;;;;11.80;8.45;;;;;;;;;;5093421;28;20040;-74
2023/07/22 10:08:09;;;;;;;10.57;7.00;;;;;;;;;;5096167;28;20036;-74
2023/07/22 10:10:37;;;;;;;11.63;7.35;;;;;;;;;;5073539;28;20515;-73
2023/07/22 10:13:04;;;;;;;12.07;6.63;;;;;;;;;;5085716;28;20040;-73
2023/07/22 10:15:32;;;;;;;9.27;6.40;;;;;;;;;;5095949;28;20043;-77
2023/07/22 10:18:00;;;;;;;10.70;6.45;;;;;;;;;;5069239;28;20043;-73
2023/07/22 10:20:26;;;;;;;10.93;7.05;;;;;;;;;;5092999;28;20032;-73
2023/07/22 10:22:52;;;;;;;11.57;7.18;;;;;;;;;;5092885;28;20093;-73
2023/07/22 10:25:19;;;;;;;10.38;7.03;;;;;;;;;;5089161;28;20498;-75
2023/07/22 10:27:46;;;;;;;10.98;7.05;;;;;;;;;;5093942;28;20480;-74
2023/07/22 10:30:13;;;;;;;9.52;6.55;;;;;;;;;;5089134;28;20047;-75
2023/07/22 10:32:41;;;;;;;12.05;7.43;;;;;;;;;;5077094;28;20048;-74
2023/07/22 10:35:11;;;;;;;12.52;7.80;;;;;;;;;;5095213;28;20066;-73
2023/07/22 10:37:38;;;;;;;10.85;7.10;;;;;;;;;;5110613;28;20043;-74
2023/07/22 10:40:18;;;;;;;10.02;6.88;;;;;;;;;;5116253;28;20126;-74
2023/07/22 10:42:51;;;;;;;12.43;7.35;;;;;;;;;;5116613;28;20054;-74
2023/07/22 10:45:36;;;;;;;11.55;6.97;;;;;;;;;;5081434;28;20068;-75
2023/07/22 10:48:04;;;;;;;11.35;7.32;;;;;;;;;;5093801;28;20043;-74
2023/07/22 10:50:44;;;;;;;12.00;7.50;;;;;;;;;;5095876;28;20055;-75
2023/07/22 10:53:14;;;;;;;9.20;6.40;;;;;;;;;;5077242;28;20397;-76
2023/07/22 10:55:59;;;;;;;10.40;6.82;;;;;;;;;;5092847;28;20040;-75
2023/07/22 10:58:25;;;;;;;10.13;7.35;;;;;;;;;;5095491;28;20511;-75
2023/07/22 11:00:51;;;;;;;11.00;7.20;;;;;;;;;;5077288;28;20052;-75
2023/07/22 11:03:21;;;;;;;9.52;6.60;;;;;;;;;;5095501;28;20121;-75
2023/07/22 11:05:51;;;;;;;8.38;6.13;;;;;;;;;;5094154;28;20077;-76
2023/07/22 11:08:17;;;;;;;9.05;6.00;;;;;;;;;;5095323;28;20407;-76
2023/07/22 11:10:54;;;;;;;8.00;5.70;;;;;;;;;;5095278;28;20040;-75
2023/07/22 11:13:27;;;;;;;8.35;5.57;;;;;;;;;;5077037;28;20467;-74
2023/07/22 11:15:53;;;;;;;8.77;6.03;;;;;;;;;;5095109;28;20127;-75
2023/07/22 11:18:19;;;;;;;8.70;6.00;;;;;;;;;;5093653;28;20044;-75
2023/07/22 11:20:53;;;;;;;9.32;6.55;;;;;;;;;;5094360;28;20044;-76
2023/07/22 11:23:19;;;;;;;10.18;6.50;;;;;;;;;;5095048;28;20040;-75
2023/07/22 11:25:46;;;;;;;10.07;6.60;;;;;;;;;;5074955;28;20037;-75
2023/07/22 11:28:14;;;;;;;9.82;6.78;;;;;;;;;;5095304;28;20403;-75
2023/07/22 11:30:40;;;;;;;9.63;6.63;;;;;;;;;;5095221;28;20040;-74
2023/07/22 11:33:06;;;;;;;8.02;5.97;;;;;;;;;;5095077;28;20044;-76
2023/07/22 11:35:33;;;;;;;9.27;6.20;;;;;;;;;;5094580;28;20032;-75
2023/07/22 11:38:02;;;;;;;7.75;5.90;;;;;;;;;;5094918;28;20044;-74
2023/07/22 11:40:34;;;;;;;9.15;6.43;;;;;;;;;;5094946;28;20036;-75
2023/07/22 11:43:01;;;;;;;8.60;7.00;;;;;;;;;;5094261;28;20488;-75
2023/07/22 11:45:27;;;;;;;9.50;7.45;;;;;;;;;;5072424;28;20056;-75
2023/07/22 11:47:53;;;;;;;11.55;7.85;;;;;;;;;;5074224;28;20461;-75
2023/07/22 11:50:19;;;;;;;10.75;8.35;;;;;;;;;;5074508;28;20044;-75
2023/07/22 11:52:52;;;;;;;10.35;7.97;;;;;;;;;;5074565;28;20072;-75
2023/07/22 11:55:24;;;;;;;11.98;8.80;;;;;;;;;;5073152;28;20170;-75
2023/07/22 11:57:56;;;;;;;12.50;8.50;;;;;;;;;;5073358;28;20401;-75
2023/07/22 12:00:22;;;;;;;13.70;9.32;;;;;;;;;;5072798;28;20101;-75
2023/07/22 12:02:48;;;;;;;12.57;9.90;;;;;;;;;;5055947;28;20051;-75
2023/07/22 12:05:22;;;;;;;10.73;8.32;;;;;;;;;;5071382;28;20048;-75
2023/07/22 12:07:48;;;;;;;9.82;8.18;;;;;;;;;;5074176;28;20051;-75
2023/07/22 12:10:16;;;;;;;11.93;8.73;;;;;;;;;;5072735;28;20036;-75
2023/07/22 12:12:44;;;;;;;12.02;8.60;;;;;;;;;;5071978;28;20047;-76
2023/07/22 12:15:18;;;;;;;13.75;9.93;;;;;;;;;;5071710;28;20453;-76
2023/07/22 12:17:45;;;;;;;13.23;9.40;;;;;;;;;;5055928;28;20049;-92
2023/07/22 12:20:12;;;;;;;12.35;9.45;;;;;;;;;;5057608;28;20045;-75
2023/07/22 12:22:38;;;;;;;12.30;9.38;;;;;;;;;;5072674;28;20036;-75
2023/07/22 12:25:04;;;;;;;12.38;9.38;;;;;;;;;;5073328;28;20041;-77
2023/07/22 12:27:30;;;;;;;10.73;8.68;;;;;;;;;;5069685;28;20082;-75
2023/07/22 12:29:56;;;;;;;12.50;9.38;;;;;;;;;;5069727;28;20401;-75
2023/07/22 12:32:22;;;;;;;11.20;9.70;;;;;;;;;;5069620;28;20119;-76
2023/07/22 12:34:48;;;;;;;10.65;9.40;;;;;;;;;;5069367;28;20517;-75
2023/07/22 12:37:14;;;;;;;12.07;9.60;;;;;;;;;;5067500;28;20079;-75
2023/07/22 12:39:41;;;;;;;10.40;9.25;;;;;;;;;;5068982;28;20052;-75
2023/07/22 12:42:07;;;;;;;14.10;10.50;;;;;;;;;;5069835;28;20110;-74
2023/07/22 12:44:33;;;;;;;13.30;10.73;;;;;;;;;;5074345;28;20070;-74
2023/07/22 12:46:59;;;;;;;13.88;10.90;;;;;;;;;;5089114;28;20075;-75
2023/07/22 12:49:26;;;;;;;17.10;11.90;;;;;;;;;;5090290;28;20040;-76
2023/07/22 12:51:52;;;;;;;14.45;11.55;;;;;;;;;;5058013;28;20083;-75
2023/07/22 12:54:19;;;;;;;14.77;11.38;;;;;;;;;;5088886;28;20047;-74
2023/07/22 12:56:45;;;;;;;12.55;10.40;;;;;;;;;;5057558;28;20040;-75
2023/07/22 12:59:11;;;;;;;14.77;11.52;;;;;;;;;;5092549;28;20093;-73
2023/07/22 13:01:39;;;;;;;14.95;10.75;;;;;;;;;;5091818;28;20598;-74
2023/07/22 13:04:05;;;;;;;12.48;9.77;;;;;;;;;;5072005;28;20504;-73
2023/07/22 13:06:31;;;;;;;12.82;9.18;;;;;;;;;;5085678;28;20047;-73
2023/07/22 13:08:57;;;;;;;10.95;8.57;;;;;;;;;;5089857;28;20438;-73
2023/07/22 13:11:23;;;;;;;11.60;8.73;;;;;;;;;;5090788;28;20040;-74
2023/07/22 13:13:50;;;;;;;11.65;8.65;;;;;;;;;;5091577;28;20044;-74
2023/07/22 13:16:16;;;;;;;11.55;8.88;;;;;;;;;;5072048;28;20059;-75
2023/07/22 13:18:45;;;;;;;11.35;9.40;;;;;;;;;;5072149;28;20369;-76
2023/07/22 13:21:11;;;;;;;13.50;9.55;;;;;;;;;;5093548;28;20044;-75
2023/07/22 13:23:37;;;;;;;11.48;8.88;;;;;;;;;;5093786;28;20048;-75
2023/07/22 13:26:03;;;;;;;11.15;8.30;;;;;;;;;;5055106;28;20044;-75
2023/07/22 13:28:29;;;;;;;13.15;9.00;;;;;;;;;;5089841;28;20051;-75
2023/07/22 13:30:56;;;;;;;10.18;8.20;;;;;;;;;;5089553;28;20047;-75
2023/07/22 13:33:22;;;;;;;15.85;12.30;;;;;;;;;;5071580;28;20044;-76
2023/07/22 13:35:50;;;;;;;11.65;8.98;;;;;;;;;;5089708;28;20400;-75
2023/07/22 13:38:16;;;;;;;11.68;8.77;;;;;;;;;;5089963;28;20527;-75
2023/07/22 13:40:42;;;;;;;14.38;10.27;;;;;;;;;;5089277;28;20101;-75
2023/07/22 13:43:09;;;;;;;12.85;10.13;;;;;;;;;;5071346;28;20044;-76
2023/07/22 13:45:35;;;;;;;13.73;10.02;;;;;;;;;;5089813;28;20055;-76
2023/07/22 13:48:01;;;;;;;13.77;10.27;;;;;;;;;;5089739;28;20044;-75
2023/07/22 13:50:28;;;;;;;13.82;11.00;;;;;;;;;;5089538;28;20591;-75
2023/07/22 13:52:54;;;;;;;13.00;10.88;;;;;;;;;;5073543;28;20036;-76
2023/07/22 13:55:20;;;;;;;12.80;11.25;;;;;;;;;;5089557;28;20076;-76
2023/07/22 13:57:46;;;;;;;13.77;10.57;;;;;;;;;;5071224;28;20036;-76
2023/07/22 14:00:13;;;;;;;13.93;10.45;;;;;;;;;;5090953;28;20225;-75
2023/07/22 14:02:40;;;;;;;12.63;10.20;;;;;;;;;;5070446;28;20051;-76
2023/07/22 14:05:06;;;;;;;12.57;9.60;;;;;;;;;;5088647;28;20143;-76
2023/07/22 14:07:32;;;;;;;14.30;11.00;;;;;;;;;;5090154;28;20169;-76
2023/07/22 14:09:58;;;;;;;12.63;10.10;;;;;;;;;;5090039;28;20059;-77
2023/07/22 14:12:25;;;;;;;12.60;10.27;;;;;;;;;;5073058;28;20043;-75
2023/07/22 14:14:51;;;;;;;15.20;10.20;;;;;;;;;;5092513;28;20040;-76
2023/07/22 14:17:17;;;;;;;12.27;9.38;;;;;;;;;;5090851;28;20086;-76
2023/07/22 14:19:43;;;;;;;12.02;9.70;;;;;;;;;;5072474;28;20062;-77
2023/07/22 14:22:09;;;;;;;12.05;9.25;;;;;;;;;;5091347;28;20539;-76
2023/07/22 14:24:35;;;;;;;10.93;8.05;;;;;;;;;;5091554;28;20040;-75
2023/07/22 14:27:01;;;;;;;12.23;8.57;;;;;;;;;;5073748;28;20048;-75
2023/07/22 14:29:27;;;;;;;13.65;8.32;;;;;;;;;;5091497;28;20153;-76